createdAt,value
2023-12-13T00:01:44.441Z,1527
2023-12-13T00:07:03.113Z,1572
2023-12-13T00:12:21.224Z,1600
2023-12-13T00:17:39.452Z,1613
2023-12-13T00:22:58.166Z,1641
2023-12-13T00:28:16.527Z,1659
2023-12-13T00:33:35.084Z,1666
2023-12-13T00:38:53.377Z,1671
2023-12-13T00:44:11.525Z,1680
2023-12-13T00:49:29.940Z,1684
2023-12-13T00:54:48.179Z,1688
2023-12-13T01:00:06.691Z,1687
2023-12-13T01:05:25.324Z,1690
2023-12-13T01:10:44.072Z,1681
2023-12-13T01:16:02.579Z,1669
2023-12-13T01:21:05.495Z,1678
2023-12-13T01:26:23.815Z,1678
2023-12-13T01:31:41.971Z,1676
2023-12-13T01:37:00.385Z,1662
2023-12-13T01:42:18.778Z,1660
2023-12-13T01:47:37.217Z,1651
2023-12-13T01:52:55.752Z,1649
2023-12-13T01:58:14.166Z,1645
2023-12-13T02:03:32.641Z,1640
2023-12-13T02:08:35.047Z,1637
2023-12-13T02:13:53.411Z,1633
2023-12-13T02:19:12.144Z,1632
2023-12-13T02:24:30.463Z,1634
2023-12-13T02:29:48.813Z,1640
2023-12-13T02:35:06.989Z,1628
2023-12-13T02:40:25.036Z,1622
2023-12-13T02:45:43.235Z,1615
2023-12-13T02:51:01.577Z,1614
2023-12-13T02:56:19.949Z,1608
2023-12-13T03:01:38.476Z,1609
2023-12-13T03:06:56.989Z,1609
2023-12-13T03:12:15.531Z,1604
2023-12-13T03:17:33.748Z,1598
2023-12-13T03:22:53.559Z,1595
2023-12-13T03:28:11.761Z,1597
2023-12-13T03:33:30.361Z,1610
2023-12-13T03:38:48.810Z,1611
2023-12-13T03:44:07.006Z,1616
2023-12-13T03:49:25.429Z,1612
2023-12-13T03:54:44.257Z,1613
2023-12-13T04:00:02.820Z,1611
2023-12-13T04:05:21.047Z,1614
2023-12-13T04:10:39.562Z,1608
2023-12-13T04:15:57.962Z,1614
2023-12-13T04:21:15.927Z,1614
2023-12-13T04:26:34.262Z,1610
2023-12-13T04:31:52.945Z,1609
2023-12-13T04:37:11.305Z,1600
2023-12-13T04:42:31.178Z,1593
2023-12-13T04:47:49.856Z,1593
2023-12-13T04:53:07.969Z,1589
2023-12-13T04:58:26.157Z,1577
2023-12-13T05:03:46.716Z,1562
2023-12-13T05:09:05.574Z,1587
2023-12-13T05:14:23.903Z,1578
2023-12-13T05:19:42.372Z,1586
2023-12-13T05:25:00.743Z,1582
2023-12-13T05:30:18.976Z,1575
2023-12-13T05:35:37.721Z,1565
2023-12-13T05:40:56.109Z,1603
2023-12-13T05:46:14.671Z,1604
2023-12-13T05:51:33.029Z,1597
2023-12-13T05:56:51.180Z,1626
2023-12-13T06:02:09.781Z,1632
2023-12-13T06:07:28.030Z,1625
2023-12-13T06:12:46.638Z,1618
2023-12-13T06:18:05.260Z,1615
2023-12-13T06:23:23.787Z,1579
2023-12-13T06:28:42.176Z,1581
2023-12-13T06:33:45.214Z,1585
2023-12-13T06:39:03.634Z,1561
2023-12-13T06:44:21.556Z,1532
2023-12-13T06:49:39.715Z,1558
2023-12-13T06:54:58.066Z,1586
2023-12-13T07:00:16.375Z,1567
2023-12-13T07:05:37.685Z,1541
2023-12-13T07:10:56.039Z,1501
2023-12-13T07:16:14.389Z,1475
2023-12-13T07:21:32.683Z,1464
2023-12-13T07:26:51.054Z,1451
2023-12-13T07:32:09.177Z,1445
2023-12-13T07:37:27.552Z,1435
2023-12-13T07:42:46.063Z,1432
2023-12-13T07:48:08.986Z,1421
2023-12-13T07:53:49.165Z,1416
2023-12-13T07:59:07.548Z,1406
2023-12-13T08:04:26.102Z,1398
2023-12-13T08:09:44.383Z,1400
2023-12-13T08:15:02.621Z,1405
2023-12-13T08:20:20.712Z,1417
2023-12-13T08:25:38.696Z,1416
2023-12-13T08:31:04.066Z,1402
2023-12-13T08:36:45.078Z,1394
2023-12-13T08:42:03.404Z,1383
2023-12-13T08:47:21.920Z,1375
2023-12-13T08:52:40.062Z,1375
2023-12-13T08:57:58.412Z,1367
2023-12-13T09:03:16.786Z,1361
2023-12-13T09:08:35.248Z,1353
2023-12-13T09:13:53.616Z,1348
2023-12-13T09:19:12.387Z,1347
2023-12-13T09:24:32.119Z,1355
2023-12-13T09:29:50.296Z,1359
2023-12-13T09:35:08.639Z,1362
2023-12-13T09:40:26.994Z,1366
2023-12-13T09:45:45.362Z,1378
2023-12-13T09:51:03.333Z,1378
2023-12-13T09:56:21.662Z,1371
2023-12-13T10:01:39.653Z,1373
2023-12-13T10:06:42.492Z,1374
2023-12-13T10:11:48.189Z,1278
2023-12-13T10:17:12.136Z,1280
2023-12-13T10:22:38.568Z,1290
2023-12-13T10:27:56.677Z,1292
2023-12-13T10:33:15.053Z,1282
2023-12-13T10:38:33.491Z,1280
2023-12-13T10:43:52.055Z,1284
2023-12-13T10:49:11.605Z,1280
2023-12-13T10:54:29.846Z,1276
2023-12-13T10:59:48.554Z,1273
2023-12-13T11:05:07.104Z,1269
2023-12-13T11:10:25.295Z,1269
2023-12-13T11:15:43.610Z,1275
2023-12-13T11:21:04.189Z,1294
2023-12-13T11:26:22.734Z,1302
2023-12-13T11:31:40.754Z,1313
2023-12-13T11:36:59.131Z,1309
2023-12-13T11:42:17.761Z,1292
2023-12-13T11:47:36.388Z,1112
2023-12-13T11:52:56.151Z,1177
2023-12-13T11:58:14.331Z,1191
2023-12-13T12:03:32.843Z,1198
2023-12-13T12:08:50.956Z,1198
2023-12-13T12:14:09.556Z,1204
2023-12-13T12:19:27.679Z,1208
2023-12-13T12:24:46.551Z,1215
2023-12-13T12:30:05.091Z,1221
2023-12-13T12:35:24.386Z,1226
2023-12-13T12:40:43.492Z,1229
2023-12-13T12:46:01.869Z,1239
2023-12-13T12:51:20.127Z,1246
2023-12-13T12:56:38.241Z,1247
2023-12-13T13:01:56.439Z,1253
2023-12-13T13:07:15.168Z,1254
2023-12-13T13:12:34.491Z,1258
2023-12-13T13:17:53.119Z,1260
2023-12-13T13:23:11.583Z,1271
2023-12-13T13:28:29.994Z,1261
2023-12-13T13:33:48.611Z,1268
2023-12-13T13:39:07.167Z,1274
2023-12-13T13:44:25.122Z,1276
2023-12-13T13:49:43.773Z,1291
2023-12-13T13:55:02.469Z,1298
2023-12-13T14:00:20.574Z,1297
2023-12-13T14:05:39.092Z,1337
2023-12-13T14:10:57.520Z,1322
2023-12-13T14:16:15.550Z,1309
2023-12-13T14:21:33.937Z,1303
2023-12-13T14:26:52.108Z,1299
2023-12-13T14:32:10.301Z,1290
2023-12-13T14:37:28.955Z,1287
2023-12-13T14:42:47.294Z,1282
2023-12-13T14:48:05.917Z,1276
2023-12-13T14:53:24.373Z,1276
2023-12-13T14:58:42.606Z,1273
2023-12-13T15:04:00.607Z,1268
2023-12-13T15:09:19.002Z,1263
2023-12-13T15:14:37.158Z,1258
2023-12-13T15:19:55.316Z,1253
2023-12-13T15:25:15.143Z,1246
2023-12-13T15:30:36.407Z,1234
2023-12-13T15:35:54.735Z,1234
2023-12-13T15:41:13.279Z,1229
2023-12-13T15:46:31.595Z,1229
2023-12-13T15:51:49.723Z,1224
2023-12-13T15:57:08.281Z,1218
2023-12-13T16:02:26.414Z,1217
2023-12-13T16:07:45.110Z,1219
2023-12-13T16:12:49.510Z,1212
2023-12-13T16:18:08.528Z,1202
2023-12-13T16:23:26.771Z,1223
2023-12-13T16:28:45.539Z,1231
2023-12-13T16:34:04.016Z,1225
2023-12-13T16:39:22.145Z,1220
2023-12-13T16:44:41.394Z,1209
2023-12-13T16:49:59.781Z,1209
2023-12-13T16:55:18.079Z,1199
2023-12-13T17:00:36.670Z,1191
2023-12-13T17:05:55.023Z,1188
2023-12-13T17:11:14.315Z,1184
2023-12-13T17:16:32.843Z,1177
2023-12-13T17:21:51.031Z,1178
2023-12-13T17:27:09.544Z,1177
2023-12-13T17:32:27.574Z,1177
2023-12-13T17:37:31.133Z,1169
2023-12-13T17:42:49.558Z,1176
2023-12-13T17:48:07.935Z,1165
2023-12-13T17:53:26.773Z,1170
2023-12-13T17:58:45.104Z,1167
2023-12-13T18:04:03.526Z,1180
2023-12-13T18:09:22.125Z,1178
2023-12-13T18:14:40.609Z,1176
2023-12-13T18:19:58.599Z,1181
2023-12-13T18:25:17.129Z,1185
2023-12-13T18:30:19.644Z,1218
2023-12-13T18:35:37.862Z,1278
2023-12-13T18:40:56.215Z,1293
2023-12-13T18:46:14.571Z,1290
2023-12-13T18:51:32.901Z,1284
2023-12-13T18:56:51.269Z,1289
2023-12-13T19:02:09.533Z,1334
2023-12-13T19:07:28.663Z,1299
2023-12-13T19:12:47.175Z,1296
2023-12-13T19:18:05.800Z,1290
2023-12-13T19:23:24.587Z,1292
2023-12-13T19:28:43.261Z,1295
2023-12-13T19:34:01.938Z,1297
2023-12-13T19:39:20.589Z,1292
2023-12-13T19:44:38.773Z,1291
2023-12-13T19:49:57.119Z,1289
2023-12-13T19:55:15.155Z,1285
2023-12-13T20:00:33.318Z,1285
2023-12-13T20:05:51.713Z,1280
2023-12-13T20:11:10.500Z,1274
2023-12-13T20:16:29.008Z,1269
2023-12-13T20:21:47.372Z,1265
2023-12-13T20:27:05.534Z,1266
2023-12-13T20:32:23.728Z,1265
2023-12-13T20:37:41.901Z,1256
2023-12-13T20:43:00.409Z,1264
2023-12-13T20:48:18.346Z,1264
2023-12-13T20:53:36.759Z,1266
2023-12-13T20:58:55.378Z,1261
2023-12-13T21:04:14.543Z,1264
2023-12-13T21:09:32.680Z,1280
2023-12-13T21:14:50.845Z,1296
2023-12-13T21:20:09.257Z,1365
2023-12-13T21:25:27.955Z,1355
2023-12-13T21:30:46.195Z,1403
2023-12-13T21:36:04.948Z,1447
2023-12-13T21:41:24.922Z,1487
2023-12-13T21:46:44.424Z,1501
2023-12-13T21:52:02.925Z,1514
2023-12-13T21:57:21.223Z,1542
2023-12-13T22:02:39.785Z,1549
2023-12-13T22:07:58.178Z,1561
2023-12-13T22:13:16.680Z,1574
2023-12-13T22:18:34.860Z,1572
2023-12-13T22:23:53.993Z,1582
2023-12-13T22:29:12.292Z,1587
2023-12-13T22:34:30.592Z,1597
2023-12-13T22:39:49.209Z,1603
2023-12-13T22:45:07.198Z,1610
2023-12-13T22:50:25.672Z,1610
2023-12-13T22:55:44.544Z,1607
2023-12-13T23:01:02.797Z,1618
2023-12-13T23:06:21.141Z,1610
2023-12-13T23:11:39.722Z,1613
2023-12-13T23:16:59.561Z,1620
2023-12-13T23:22:18.912Z,1618
2023-12-13T23:27:37.106Z,1621
2023-12-13T23:32:55.320Z,1616
2023-12-13T23:38:13.860Z,1622
2023-12-13T23:43:32.332Z,1626
2023-12-13T23:48:50.800Z,1623
2023-12-13T23:54:09.199Z,1624
2023-12-13T23:59:27.150Z,1627
